createdAt,value
2023-02-13T00:01:53.098Z,4.33
2023-02-13T00:04:19.376Z,4.29
2023-02-13T00:06:47.702Z,4.25
2023-02-13T00:09:14.702Z,4.21
2023-02-13T00:11:41.009Z,4.21
2023-02-13T00:14:07.419Z,4.16
2023-02-13T00:16:34.181Z,4.15
2023-02-13T00:19:00.511Z,4.11
2023-02-13T00:21:26.872Z,4.05
2023-02-13T00:23:53.319Z,4.03
2023-02-13T00:26:19.734Z,4.02
2023-02-13T00:28:46.296Z,4.01
2023-02-13T00:31:15.491Z,4.00
2023-02-13T00:33:42.697Z,4.01
2023-02-13T00:36:10.524Z,4.01
2023-02-13T00:38:38.240Z,4.00
2023-02-13T00:41:05.623Z,4.02
2023-02-13T00:43:32.453Z,4.04
2023-02-13T00:45:59.004Z,4.07
2023-02-13T00:48:26.083Z,4.11
2023-02-13T00:50:55.675Z,4.13
2023-02-13T00:53:23.667Z,4.11
2023-02-13T00:55:50.050Z,4.14
2023-02-13T00:58:17.181Z,4.12
2023-02-13T01:00:43.604Z,4.11
2023-02-13T01:03:10.136Z,4.12
2023-02-13T01:05:36.555Z,4.14
2023-02-13T01:08:03.165Z,4.13
2023-02-13T01:10:29.655Z,4.06
2023-02-13T01:12:55.983Z,4.03
2023-02-13T01:15:22.827Z,3.98
2023-02-13T01:17:49.359Z,3.94
2023-02-13T01:20:15.719Z,3.88
2023-02-13T01:22:44.266Z,3.81
2023-02-13T01:25:10.701Z,3.74
2023-02-13T01:27:38.220Z,3.72
2023-02-13T01:30:10.423Z,3.69
2023-02-13T01:32:36.753Z,3.64
2023-02-13T01:35:04.116Z,3.60
2023-02-13T01:37:30.425Z,3.56
2023-02-13T01:39:56.931Z,3.49
2023-02-13T01:42:26.969Z,3.46
2023-02-13T01:44:59.070Z,3.42
2023-02-13T01:47:52.779Z,3.36
2023-02-13T01:50:25.400Z,3.30
2023-02-13T01:53:20.925Z,3.21
2023-02-13T01:55:52.755Z,3.13
2023-02-13T01:58:22.895Z,3.08
2023-02-13T02:00:49.814Z,3.04
2023-02-13T02:03:24.213Z,3.01
2023-02-13T02:05:52.284Z,2.94
2023-02-13T02:08:19.486Z,2.88
2023-02-13T02:10:45.783Z,2.83
2023-02-13T02:13:14.473Z,2.78
2023-02-13T02:15:42.631Z,2.72
2023-02-13T02:18:16.570Z,2.69
2023-02-13T02:21:01.650Z,2.68
2023-02-13T02:23:46.003Z,2.62
2023-02-13T02:26:50.401Z,2.59
2023-02-13T02:29:19.533Z,2.57
2023-02-13T02:32:08.555Z,2.51
2023-02-13T02:34:47.872Z,2.42
2023-02-13T02:37:32.959Z,2.33
2023-02-13T02:40:34.604Z,2.27
2023-02-13T02:43:12.851Z,2.22
2023-02-13T02:46:04.218Z,2.16
2023-02-13T02:49:08.182Z,2.12
2023-02-13T02:51:46.552Z,2.09
2023-02-13T02:54:57.943Z,2.06
2023-02-13T02:57:49.945Z,2.00
2023-02-13T03:00:41.030Z,2.02
2023-02-13T03:03:43.676Z,2.01
2023-02-13T03:06:18.598Z,1.99
2023-02-13T03:09:10.866Z,1.92
2023-02-13T03:11:57.001Z,1.83
2023-02-13T03:14:26.428Z,1.73
2023-02-13T03:17:11.344Z,1.69
2023-02-13T03:19:59.057Z,1.67
2023-02-13T03:22:39.621Z,1.59
2023-02-13T03:25:35.856Z,1.56
2023-02-13T03:28:43.864Z,1.44
2023-02-13T03:31:38.576Z,1.37
2023-02-13T03:34:10.538Z,1.31
2023-02-13T03:37:14.392Z,1.25
2023-02-13T03:40:05.404Z,1.18
2023-02-13T03:42:45.287Z,1.12
2023-02-13T03:45:41.069Z,1.06
2023-02-13T03:48:30.092Z,0.98
2023-02-13T03:50:59.193Z,0.90
2023-02-13T03:53:28.699Z,0.84
2023-02-13T03:56:15.517Z,0.79
2023-02-13T03:59:08.796Z,0.72
2023-02-13T04:01:37.144Z,0.72
2023-02-13T04:04:22.829Z,0.71
2023-02-13T04:07:03.620Z,0.71
2023-02-13T04:09:31.872Z,0.70
2023-02-13T04:12:21.218Z,0.69
2023-02-13T04:14:57.631Z,0.69
2023-02-13T04:17:33.529Z,0.67
2023-02-13T04:20:00.125Z,0.71
2023-02-13T04:22:26.429Z,0.71
2023-02-13T04:24:52.699Z,0.74
2023-02-13T04:27:19.008Z,0.76
2023-02-13T04:29:45.494Z,0.78
2023-02-13T04:32:12.685Z,0.76
2023-02-13T04:34:39.098Z,0.73
2023-02-13T04:37:05.416Z,0.72
2023-02-13T04:39:31.715Z,0.69
2023-02-13T04:41:58.015Z,0.67
2023-02-13T04:44:24.384Z,0.66
2023-02-13T04:46:50.703Z,0.63
2023-02-13T04:49:17.008Z,0.59
2023-02-13T04:51:43.295Z,0.57
2023-02-13T04:54:11.409Z,0.57
2023-02-13T04:56:37.714Z,0.58
2023-02-13T04:59:03.994Z,0.59
2023-02-13T05:01:30.325Z,0.61
2023-02-13T05:03:56.632Z,0.62
2023-02-13T05:06:22.951Z,0.63
2023-02-13T05:08:49.220Z,0.64
2023-02-13T05:11:15.502Z,0.63
2023-02-13T05:13:41.877Z,0.63
2023-02-13T05:16:08.274Z,0.62
2023-02-13T05:18:34.685Z,0.67
2023-02-13T05:21:19.595Z,0.69
2023-02-13T05:23:45.961Z,0.72
2023-02-13T05:26:12.268Z,0.76
2023-02-13T05:28:57.263Z,0.80
2023-02-13T05:31:23.718Z,0.81
2023-02-13T05:33:50.097Z,0.83
2023-02-13T05:36:16.361Z,0.85
2023-02-13T05:38:42.736Z,0.89
2023-02-13T05:41:09.080Z,0.97
2023-02-13T05:43:35.345Z,1.06
2023-02-13T05:46:06.800Z,1.14
2023-02-13T05:48:33.689Z,1.18
2023-02-13T05:51:00.892Z,1.18
2023-02-13T05:53:27.260Z,1.19
2023-02-13T05:55:53.556Z,1.18
2023-02-13T05:58:20.748Z,1.19
2023-02-13T06:00:47.605Z,1.18
2023-02-13T06:03:14.623Z,1.20
2023-02-13T06:05:41.084Z,1.23
2023-02-13T06:08:07.364Z,1.26
2023-02-13T06:10:33.626Z,1.28
2023-02-13T06:12:59.960Z,1.32
2023-02-13T06:15:26.260Z,1.37
2023-02-13T06:17:52.514Z,1.45
2023-02-13T06:20:19.026Z,1.51
2023-02-13T06:22:48.837Z,1.57
2023-02-13T06:25:15.142Z,1.62
2023-02-13T06:27:41.453Z,1.66
2023-02-13T06:30:08.297Z,1.70
2023-02-13T06:32:34.576Z,1.68
2023-02-13T06:35:00.900Z,1.70
2023-02-13T06:37:27.263Z,1.70
2023-02-13T06:39:53.604Z,1.74
2023-02-13T06:42:20.312Z,1.76
2023-02-13T06:44:46.637Z,1.79
2023-02-13T06:47:12.905Z,1.78
2023-02-13T06:49:39.199Z,1.81
2023-02-13T06:52:05.602Z,1.81
2023-02-13T06:54:46.297Z,1.83
2023-02-13T06:57:13.377Z,1.86
2023-02-13T06:59:39.680Z,1.86
2023-02-13T07:02:06.030Z,1.88
2023-02-13T07:04:32.304Z,1.91
2023-02-13T07:06:58.584Z,1.90
2023-02-13T07:09:24.860Z,1.95
2023-02-13T07:11:52.285Z,1.98
2023-02-13T07:14:18.777Z,1.99
2023-02-13T07:16:45.070Z,2.03
2023-02-13T07:19:11.564Z,2.07
2023-02-13T07:21:38.094Z,2.07
2023-02-13T07:24:07.726Z,2.14
2023-02-13T07:26:34.360Z,2.17
2023-02-13T07:29:11.111Z,2.19
2023-02-13T07:31:39.170Z,2.22
2023-02-13T07:34:05.517Z,2.26
2023-02-13T07:36:31.820Z,2.30
2023-02-13T07:38:58.118Z,2.33
2023-02-13T07:41:27.261Z,2.36
2023-02-13T07:43:54.205Z,2.38
2023-02-13T07:46:20.646Z,2.43
2023-02-13T07:48:46.977Z,2.48
2023-02-13T07:51:13.265Z,2.52
2023-02-13T07:53:39.530Z,2.56
2023-02-13T07:56:07.145Z,2.59
2023-02-13T07:58:33.544Z,2.63
2023-02-13T08:01:10.211Z,2.69
2023-02-13T08:03:36.808Z,2.74
2023-02-13T08:06:03.889Z,2.81
2023-02-13T08:08:30.373Z,2.89
2023-02-13T08:11:16.400Z,2.95
2023-02-13T08:13:43.491Z,3.02
2023-02-13T08:16:09.877Z,3.08
2023-02-13T08:18:36.141Z,3.13
2023-02-13T08:21:03.486Z,3.22
2023-02-13T08:23:29.822Z,3.28
2023-02-13T08:26:00.179Z,3.34
2023-02-13T08:28:26.897Z,3.42
2023-02-13T08:30:53.306Z,3.48
2023-02-13T08:33:19.691Z,3.56
2023-02-13T08:35:45.986Z,3.58
2023-02-13T08:38:12.360Z,3.69
2023-02-13T08:40:38.711Z,3.79
2023-02-13T08:43:06.108Z,3.88
2023-02-13T08:45:32.906Z,3.98
2023-02-13T08:48:00.351Z,4.03
2023-02-13T08:50:27.782Z,4.14
2023-02-13T08:52:54.111Z,4.21
2023-02-13T08:55:20.571Z,4.26
2023-02-13T08:57:47.002Z,4.32
2023-02-13T09:00:14.574Z,4.40
2023-02-13T09:02:40.876Z,4.48
2023-02-13T09:05:07.398Z,4.56
2023-02-13T09:07:33.678Z,4.63
2023-02-13T09:10:00.002Z,4.72
2023-02-13T09:12:26.262Z,4.82
2023-02-13T09:14:52.570Z,4.87
2023-02-13T09:17:19.659Z,4.94
2023-02-13T09:19:46.993Z,5.03
2023-02-13T09:22:13.382Z,5.12
2023-02-13T09:24:39.683Z,5.19
2023-02-13T09:27:05.966Z,5.33
2023-02-13T09:29:33.769Z,5.53
2023-02-13T09:32:00.455Z,5.95
2023-02-13T09:34:27.046Z,7.16
2023-02-13T09:36:54.167Z,8.64
2023-02-13T09:39:20.709Z,10.12
2023-02-13T09:41:50.431Z,11.30
2023-02-13T09:44:36.245Z,12.46
2023-02-13T09:47:20.031Z,13.56
2023-02-13T09:49:56.844Z,14.38
2023-02-13T09:52:23.112Z,14.96
2023-02-13T09:54:49.415Z,15.09
2023-02-13T09:57:35.608Z,14.59
2023-02-13T10:00:32.593Z,14.13
2023-02-13T10:02:58.941Z,13.40
2023-02-13T10:05:46.668Z,12.65
2023-02-13T10:08:30.054Z,11.59
2023-02-13T10:11:27.265Z,10.93
2023-02-13T10:14:14.944Z,10.52
2023-02-13T10:16:48.018Z,10.56
2023-02-13T10:19:25.913Z,10.75
2023-02-13T10:21:59.333Z,11.22
2023-02-13T10:24:47.993Z,11.58
2023-02-13T10:27:39.206Z,11.36
2023-02-13T10:30:18.632Z,11.17
2023-02-13T10:32:52.077Z,11.21
2023-02-13T10:35:30.659Z,11.17
2023-02-13T10:37:59.488Z,10.93
2023-02-13T10:40:32.652Z,10.88
2023-02-13T10:43:08.223Z,10.78
2023-02-13T10:45:51.211Z,10.77
2023-02-13T10:48:49.896Z,11.21
2023-02-13T10:51:24.175Z,11.41
2023-02-13T10:54:15.864Z,11.49
2023-02-13T10:56:55.275Z,11.47
2023-02-13T10:59:45.963Z,11.56
2023-02-13T11:02:24.018Z,11.62
2023-02-13T11:04:57.585Z,11.42
2023-02-13T11:07:26.042Z,11.19
2023-02-13T11:09:58.286Z,11.16
2023-02-13T11:12:33.224Z,11.16
2023-02-13T11:15:02.667Z,11.24
2023-02-13T11:17:35.711Z,11.30
2023-02-13T11:20:08.488Z,11.19
2023-02-13T11:22:38.091Z,10.93
2023-02-13T11:25:26.578Z,10.81
2023-02-13T11:28:10.317Z,10.76
2023-02-13T11:30:39.031Z,10.68
2023-02-13T11:33:06.883Z,10.77
2023-02-13T11:35:35.685Z,10.85
2023-02-13T11:38:20.322Z,11.07
2023-02-13T11:40:50.559Z,11.05
2023-02-13T11:43:23.534Z,11.28
2023-02-13T11:46:20.029Z,11.69
2023-02-13T11:48:56.643Z,12.23
2023-02-13T11:51:36.342Z,12.44
2023-02-13T11:54:03.945Z,12.49
2023-02-13T11:57:03.164Z,12.48
2023-02-13T11:59:38.489Z,12.44
2023-02-13T12:02:30.325Z,12.41
2023-02-13T12:05:18.499Z,12.39
2023-02-13T12:07:46.225Z,12.43
2023-02-13T12:10:19.593Z,12.49
2023-02-13T12:12:55.940Z,12.80
2023-02-13T12:15:28.819Z,13.19
2023-02-13T12:18:40.326Z,13.31
2023-02-13T12:21:48.495Z,13.11
2023-02-13T12:24:49.021Z,12.87
2023-02-13T12:27:32.720Z,12.86
2023-02-13T12:30:36.562Z,13.09
2023-02-13T12:33:41.046Z,13.16
2023-02-13T12:36:20.914Z,13.29
2023-02-13T12:39:13.854Z,13.30
2023-02-13T12:42:02.088Z,13.44
2023-02-13T12:44:40.188Z,13.40
2023-02-13T12:47:24.471Z,13.48
2023-02-13T12:49:59.207Z,13.63
2023-02-13T12:52:53.092Z,13.80
2023-02-13T12:55:37.773Z,13.93
2023-02-13T12:58:30.770Z,14.06
2023-02-13T13:01:26.058Z,14.32
2023-02-13T13:04:18.770Z,14.55
2023-02-13T13:06:54.734Z,14.55
2023-02-13T13:09:39.956Z,14.77
2023-02-13T13:12:27.929Z,14.74
2023-02-13T13:15:03.984Z,14.81
2023-02-13T13:17:42.100Z,14.97
2023-02-13T13:20:37.778Z,15.33
2023-02-13T13:23:11.138Z,15.38
2023-02-13T13:25:55.770Z,15.58
2023-02-13T13:28:26.254Z,15.60
2023-02-13T13:30:53.513Z,15.50
2023-02-13T13:33:25.328Z,15.25
2023-02-13T13:36:07.308Z,15.00
2023-02-13T13:38:45.748Z,14.68
2023-02-13T13:41:18.797Z,14.68
2023-02-13T13:44:19.557Z,14.42
2023-02-13T13:47:07.424Z,14.39
2023-02-13T13:49:53.781Z,14.31
2023-02-13T13:52:24.859Z,14.50
2023-02-13T13:54:54.543Z,14.53
2023-02-13T13:57:47.102Z,14.57
2023-02-13T14:00:14.535Z,14.46
2023-02-13T14:03:11.612Z,14.39
2023-02-13T14:05:59.138Z,14.37
2023-02-13T14:08:59.678Z,14.52
2023-02-13T14:11:55.344Z,14.55
2023-02-13T14:14:27.692Z,14.59
2023-02-13T14:16:56.373Z,14.53
2023-02-13T14:19:28.802Z,14.32
2023-02-13T14:22:15.512Z,14.22
2023-02-13T14:24:44.090Z,14.38
2023-02-13T14:27:22.709Z,14.38
2023-02-13T14:29:49.732Z,14.26
2023-02-13T14:32:20.146Z,14.14
2023-02-13T14:34:57.305Z,13.98
2023-02-13T14:37:47.152Z,13.72
2023-02-13T14:40:17.371Z,13.39
2023-02-13T14:42:54.828Z,13.20
2023-02-13T14:45:27.264Z,13.07
2023-02-13T14:47:56.955Z,12.83
2023-02-13T14:50:45.380Z,12.68
2023-02-13T14:53:21.993Z,12.61
2023-02-13T14:55:53.864Z,12.58
2023-02-13T14:58:25.538Z,12.49
2023-02-13T15:01:00.620Z,12.37
2023-02-13T15:03:55.920Z,12.33
2023-02-13T15:06:33.317Z,12.38
2023-02-13T15:09:02.789Z,12.50
2023-02-13T15:11:42.818Z,12.71
2023-02-13T15:14:23.492Z,12.65
2023-02-13T15:16:55.027Z,12.42
2023-02-13T15:19:23.387Z,12.17
2023-02-13T15:21:58.972Z,11.89
2023-02-13T15:24:26.120Z,11.69
2023-02-13T15:27:07.449Z,11.57
2023-02-13T15:29:48.872Z,11.45
2023-02-13T15:32:28.767Z,11.30
2023-02-13T15:34:55.476Z,11.16
2023-02-13T15:37:28.397Z,11.03
2023-02-13T15:39:54.733Z,10.93
2023-02-13T15:42:21.390Z,10.84
2023-02-13T15:44:50.873Z,10.73
2023-02-13T15:47:31.480Z,10.64
2023-02-13T15:49:58.125Z,10.56
2023-02-13T15:52:34.390Z,10.44
2023-02-13T15:55:01.083Z,10.35
2023-02-13T15:57:27.880Z,10.27
2023-02-13T16:00:00.153Z,10.17
2023-02-13T16:02:43.097Z,10.05
2023-02-13T16:05:12.511Z,10.01
2023-02-13T16:07:54.293Z,9.92
2023-02-13T16:10:29.493Z,9.86
2023-02-13T16:12:57.870Z,9.79
2023-02-13T16:15:30.664Z,9.73
2023-02-13T16:17:57.680Z,9.70
2023-02-13T16:20:29.029Z,9.64
2023-02-13T16:23:02.596Z,9.55
2023-02-13T16:25:34.898Z,9.50
2023-02-13T16:28:05.659Z,9.41
2023-02-13T16:30:40.067Z,9.27
2023-02-13T16:33:12.133Z,9.18
2023-02-13T16:35:40.869Z,9.05
2023-02-13T16:38:35.158Z,8.95
2023-02-13T16:41:19.867Z,8.84
2023-02-13T16:43:54.015Z,8.78
2023-02-13T16:46:40.357Z,8.67
2023-02-13T16:49:09.518Z,8.57
2023-02-13T16:51:39.797Z,8.47
2023-02-13T16:54:15.691Z,8.37
2023-02-13T16:56:46.527Z,8.27
2023-02-13T16:59:32.425Z,8.16
2023-02-13T17:02:18.739Z,8.04
2023-02-13T17:05:15.196Z,7.95
2023-02-13T17:07:53.174Z,7.84
2023-02-13T17:10:32.155Z,7.79
2023-02-13T17:13:01.338Z,7.77
2023-02-13T17:15:30.237Z,7.74
2023-02-13T17:17:56.815Z,7.71
2023-02-13T17:20:25.821Z,7.66
2023-02-13T17:22:54.700Z,7.67
2023-02-13T17:25:23.885Z,7.63
2023-02-13T17:27:52.511Z,7.60
2023-02-13T17:30:21.967Z,7.56
2023-02-13T17:32:49.820Z,7.53
2023-02-13T17:35:16.538Z,7.51
2023-02-13T17:37:44.193Z,7.49
2023-02-13T17:40:18.781Z,7.43
2023-02-13T17:42:46.970Z,7.39
2023-02-13T17:45:15.755Z,7.32
2023-02-13T17:47:42.022Z,7.27
2023-02-13T17:50:10.820Z,7.21
2023-02-13T17:52:38.279Z,7.14
2023-02-13T17:55:06.350Z,7.08
2023-02-13T17:57:32.731Z,7.02
2023-02-13T18:00:03.302Z,6.94
2023-02-13T18:02:29.591Z,6.88
2023-02-13T18:04:55.999Z,6.81
2023-02-13T18:07:22.304Z,6.75
2023-02-13T18:09:48.606Z,6.71
2023-02-13T18:12:18.731Z,6.68
2023-02-13T18:14:45.281Z,6.61
2023-02-13T18:17:11.977Z,6.59
2023-02-13T18:19:39.153Z,6.55
2023-02-13T18:22:07.769Z,6.49
2023-02-13T18:24:36.158Z,6.45
2023-02-13T18:27:02.591Z,6.40
2023-02-13T18:29:29.038Z,6.34
2023-02-13T18:31:56.658Z,6.28
2023-02-13T18:34:24.281Z,6.23
2023-02-13T18:36:50.993Z,6.19
2023-02-13T18:39:17.517Z,6.16
2023-02-13T18:41:44.296Z,6.13
2023-02-13T18:44:17.350Z,6.08
2023-02-13T18:46:49.875Z,6.03
2023-02-13T18:49:16.218Z,5.99
2023-02-13T18:51:43.667Z,5.94
2023-02-13T18:54:10.197Z,5.89
2023-02-13T18:56:36.726Z,5.84
2023-02-13T18:59:03.068Z,5.79
2023-02-13T19:01:29.717Z,5.75
2023-02-13T19:03:56.006Z,5.70
2023-02-13T19:06:24.283Z,5.66
2023-02-13T19:08:50.780Z,5.61
2023-02-13T19:11:20.232Z,5.58
2023-02-13T19:13:47.080Z,5.53
2023-02-13T19:16:16.299Z,5.52
2023-02-13T19:18:48.128Z,5.47
2023-02-13T19:21:15.205Z,5.44
2023-02-13T19:23:41.717Z,5.40
2023-02-13T19:26:11.792Z,5.35
2023-02-13T19:28:38.388Z,5.28
2023-02-13T19:31:11.009Z,5.21
2023-02-13T19:33:38.507Z,5.13
2023-02-13T19:36:14.047Z,5.09
2023-02-13T19:38:43.156Z,5.04
2023-02-13T19:41:11.657Z,5.00
2023-02-13T19:43:38.171Z,4.98
2023-02-13T19:46:10.055Z,4.99
2023-02-13T19:48:37.083Z,4.97
2023-02-13T19:51:05.645Z,4.97
2023-02-13T19:53:31.967Z,4.95
2023-02-13T19:55:59.838Z,4.87
2023-02-13T19:58:26.597Z,4.78
2023-02-13T20:00:53.001Z,4.68
2023-02-13T20:03:19.373Z,4.62
2023-02-13T20:05:45.748Z,4.55
2023-02-13T20:08:12.132Z,4.48
2023-02-13T20:10:42.817Z,4.44
2023-02-13T20:13:09.193Z,4.38
2023-02-13T20:15:39.678Z,4.35
2023-02-13T20:18:06.179Z,4.33
2023-02-13T20:20:32.612Z,4.31
2023-02-13T20:22:58.949Z,4.31
2023-02-13T20:25:26.015Z,4.24
2023-02-13T20:27:52.206Z,4.23
2023-02-13T20:30:18.628Z,4.19
2023-02-13T20:32:45.041Z,4.13
2023-02-13T20:35:11.373Z,4.04
2023-02-13T20:37:37.799Z,3.99
2023-02-13T20:40:04.384Z,3.92
2023-02-13T20:42:33.296Z,3.87
2023-02-13T20:44:59.710Z,3.85
2023-02-13T20:47:26.098Z,3.88
2023-02-13T20:49:52.654Z,3.86
2023-02-13T20:52:18.927Z,3.83
2023-02-13T20:54:45.265Z,3.82
2023-02-13T20:57:12.051Z,3.80
2023-02-13T20:59:38.982Z,3.78
2023-02-13T21:02:06.658Z,3.75
2023-02-13T21:04:34.189Z,3.74
2023-02-13T21:07:00.680Z,3.70
2023-02-13T21:09:27.184Z,3.67
2023-02-13T21:11:53.443Z,3.61
2023-02-13T21:14:19.982Z,3.58
2023-02-13T21:16:46.352Z,3.54
2023-02-13T21:19:17.062Z,3.52
2023-02-13T21:21:44.180Z,3.51
2023-02-13T21:24:11.817Z,3.46
2023-02-13T21:26:38.986Z,3.38
2023-02-13T21:29:05.943Z,3.29
2023-02-13T21:31:36.067Z,3.24
2023-02-13T21:34:05.532Z,3.22
2023-02-13T21:36:33.660Z,3.17
2023-02-13T21:39:00.140Z,3.13
2023-02-13T21:41:26.771Z,3.12
2023-02-13T21:43:53.491Z,3.09
2023-02-13T21:46:37.719Z,3.05
2023-02-13T21:49:05.626Z,3.04
2023-02-13T21:51:34.741Z,2.99
2023-02-13T21:54:02.219Z,2.94
2023-02-13T21:56:36.650Z,2.91
2023-02-13T21:59:04.003Z,2.89
2023-02-13T22:01:36.854Z,2.88
2023-02-13T22:04:06.867Z,2.83
2023-02-13T22:06:35.484Z,2.80
2023-02-13T22:09:07.715Z,2.77
2023-02-13T22:11:34.803Z,2.71
2023-02-13T22:14:02.705Z,2.66
2023-02-13T22:16:34.149Z,2.57
2023-02-13T22:19:01.215Z,2.50
2023-02-13T22:21:29.379Z,2.42
2023-02-13T22:23:55.811Z,2.36
2023-02-13T22:26:25.354Z,2.31
2023-02-13T22:28:53.005Z,2.27
2023-02-13T22:31:24.142Z,2.22
2023-02-13T22:34:02.911Z,2.20
2023-02-13T22:36:31.565Z,2.15
2023-02-13T22:38:58.197Z,2.09
2023-02-13T22:41:25.619Z,2.02
2023-02-13T22:43:52.838Z,1.95
2023-02-13T22:46:20.307Z,1.94
2023-02-13T22:48:47.179Z,1.89
2023-02-13T22:51:19.854Z,1.90
2023-02-13T22:53:48.002Z,1.89
2023-02-13T22:56:14.766Z,1.84
2023-02-13T22:58:41.210Z,1.84
2023-02-13T23:01:12.567Z,1.87
2023-02-13T23:03:39.411Z,1.84
2023-02-13T23:06:07.031Z,1.83
2023-02-13T23:08:33.601Z,1.82
2023-02-13T23:11:23.783Z,1.75
2023-02-13T23:13:50.426Z,1.71
2023-02-13T23:16:16.868Z,1.69
2023-02-13T23:18:43.776Z,1.63
2023-02-13T23:21:10.767Z,1.60
2023-02-13T23:23:41.076Z,1.56
2023-02-13T23:26:08.259Z,1.55
2023-02-13T23:28:34.924Z,1.54
2023-02-13T23:31:02.852Z,1.52
2023-02-13T23:33:29.914Z,1.57
2023-02-13T23:35:56.500Z,1.60
2023-02-13T23:38:23.435Z,1.54
2023-02-13T23:40:50.022Z,1.54
2023-02-13T23:43:16.549Z,1.48
2023-02-13T23:45:42.900Z,1.37
2023-02-13T23:48:11.541Z,1.27
2023-02-13T23:50:37.944Z,1.20
2023-02-13T23:53:04.240Z,1.16
2023-02-13T23:55:30.576Z,1.09
2023-02-13T23:57:56.895Z,1.06
